createdAt,value
2018-05-31T00:00:19.000Z,1006.588
2018-05-31T00:10:19.000Z,1006.576
2018-05-31T00:20:19.000Z,1006.419
2018-05-31T00:30:19.000Z,1006.285
2018-05-31T00:40:19.000Z,1006.314
2018-05-31T00:50:19.000Z,1006.379
2018-05-31T01:00:19.000Z,1006.377
2018-05-31T01:10:19.000Z,1006.325
2018-05-31T01:20:19.000Z,1006.504
2018-05-31T01:30:19.000Z,1006.561
2018-05-31T01:40:19.000Z,1006.568
2018-05-31T01:50:19.000Z,1006.485
2018-05-31T02:00:19.000Z,1006.533
2018-05-31T02:10:21.000Z,1006.443
2018-05-31T02:20:19.000Z,1006.424
2018-05-31T02:30:19.000Z,1006.595
2018-05-31T02:40:19.000Z,1006.544
2018-05-31T02:50:20.000Z,1006.459
2018-05-31T03:00:20.000Z,1006.365
2018-05-31T03:10:20.000Z,1006.421
2018-05-31T03:20:20.000Z,1006.39
2018-05-31T03:30:20.000Z,1006.485
2018-05-31T03:40:20.000Z,1006.434
2018-05-31T03:50:20.000Z,1006.386
2018-05-31T04:00:20.000Z,1006.38
2018-05-31T04:10:20.000Z,1006.416
2018-05-31T04:20:20.000Z,1006.393
2018-05-31T04:30:20.000Z,1006.421
2018-05-31T04:40:20.000Z,1006.459
2018-05-31T04:50:20.000Z,1006.53
2018-05-31T05:00:20.000Z,1006.531
2018-05-31T05:10:20.000Z,1006.632
2018-05-31T05:20:20.000Z,1006.732
2018-05-31T05:30:20.000Z,1006.758
2018-05-31T05:40:20.000Z,1006.7
2018-05-31T05:50:20.000Z,1006.666
2018-05-31T06:00:20.000Z,1006.749
2018-05-31T06:10:20.000Z,1006.704
2018-05-31T06:20:20.000Z,1006.751
2018-05-31T06:30:20.000Z,1006.817
2018-05-31T06:40:20.000Z,1006.814
2018-05-31T06:50:20.000Z,1006.822
2018-05-31T07:00:20.000Z,1006.896
2018-05-31T07:10:20.000Z,1006.952
2018-05-31T07:20:23.000Z,1007.015
2018-05-31T07:30:20.000Z,1007.029
2018-05-31T07:40:20.000Z,1007.064
2018-05-31T07:50:20.000Z,1007.07
2018-05-31T08:00:20.000Z,1007.029
2018-05-31T08:10:20.000Z,1007.026
2018-05-31T08:20:20.000Z,1007.077
2018-05-31T08:30:20.000Z,1007.002
2018-05-31T08:40:20.000Z,1006.984
2018-05-31T08:50:20.000Z,1007.014
2018-05-31T09:00:20.000Z,1007.081
2018-05-31T09:10:20.000Z,1007.034
2018-05-31T09:20:20.000Z,1007.095
2018-05-31T09:30:20.000Z,1007.059
2018-05-31T09:40:20.000Z,1007.065
2018-05-31T09:50:20.000Z,1007.004
2018-05-31T10:00:20.000Z,1006.997
2018-05-31T10:10:20.000Z,1007.011
2018-05-31T10:20:20.000Z,1006.927
2018-05-31T10:30:20.000Z,1006.781
2018-05-31T10:40:20.000Z,1006.747
2018-05-31T10:50:21.000Z,1006.654
2018-05-31T11:00:21.000Z,1006.616
2018-05-31T11:10:21.000Z,1006.609
2018-05-31T11:20:21.000Z,1006.445
2018-05-31T11:30:21.000Z,1006.397
2018-05-31T11:40:21.000Z,1006.42
2018-05-31T11:50:21.000Z,1006.36
2018-05-31T12:00:23.000Z,1006.307
2018-05-31T12:10:21.000Z,1006.247
2018-05-31T12:20:21.000Z,1006.213
2018-05-31T12:30:21.000Z,1006.087
2018-05-31T12:40:21.000Z,1006.089
2018-05-31T12:50:21.000Z,1005.836
2018-05-31T13:00:21.000Z,1005.754
2018-05-31T13:10:21.000Z,1005.658
2018-05-31T13:20:21.000Z,1005.684
2018-05-31T13:30:21.000Z,1005.841
2018-05-31T13:40:21.000Z,1005.728
2018-05-31T13:50:21.000Z,1005.66
2018-05-31T14:00:21.000Z,1005.622
2018-05-31T14:10:21.000Z,1005.871
2018-05-31T14:20:21.000Z,1006.232
2018-05-31T14:30:21.000Z,1006.365
2018-05-31T14:40:21.000Z,1006.336
2018-05-31T14:50:21.000Z,1006.399
2018-05-31T15:00:21.000Z,1006.706
2018-05-31T15:10:21.000Z,1007.104
2018-05-31T15:20:21.000Z,1006.875
2018-05-31T15:30:21.000Z,1006.921
2018-05-31T15:40:21.000Z,1007.339
2018-05-31T15:50:21.000Z,1007.271
2018-05-31T16:00:21.000Z,1006.806
2018-05-31T16:10:22.000Z,1006.716
2018-05-31T16:20:21.000Z,1006.595
2018-05-31T16:30:21.000Z,1006.393
2018-05-31T16:40:21.000Z,1006.277
2018-05-31T16:50:21.000Z,1006.473
2018-05-31T17:00:21.000Z,1006.484
2018-05-31T17:10:21.000Z,1006.781
2018-05-31T17:20:21.000Z,1006.81
2018-05-31T17:30:21.000Z,1006.939
2018-05-31T17:40:21.000Z,1006.849
2018-05-31T18:00:21.000Z,1006.832
2018-05-31T18:10:21.000Z,1006.807
2018-05-31T18:20:21.000Z,1006.927
2018-05-31T18:30:21.000Z,1007.101
2018-05-31T18:40:22.000Z,1007.037
2018-05-31T18:50:22.000Z,1007.003
2018-05-31T19:00:22.000Z,1006.914
2018-05-31T19:10:22.000Z,1006.722
2018-05-31T19:20:22.000Z,1006.769
2018-05-31T19:30:22.000Z,1006.903
2018-05-31T19:40:22.000Z,1006.865
2018-05-31T19:50:22.000Z,1007.067
2018-05-31T20:00:22.000Z,1007.155
2018-05-31T20:10:22.000Z,1007.315
2018-05-31T20:20:22.000Z,1007.475
2018-05-31T20:30:22.000Z,1007.593
2018-05-31T20:40:22.000Z,1007.623
2018-05-31T20:50:22.000Z,1007.717
2018-05-31T21:00:22.000Z,1007.691
2018-05-31T21:10:22.000Z,1007.507
2018-05-31T21:20:22.000Z,1007.56
2018-05-31T21:30:22.000Z,1007.62
2018-05-31T21:40:22.000Z,1007.621
2018-05-31T21:50:22.000Z,1007.602
2018-05-31T22:00:22.000Z,1007.448
2018-05-31T22:10:22.000Z,1007.477
2018-05-31T22:20:22.000Z,1007.47
2018-05-31T22:30:22.000Z,1007.438
2018-05-31T22:40:22.000Z,1007.302
2018-05-31T22:50:22.000Z,1007.144
2018-05-31T23:00:22.000Z,1007.077
2018-05-31T23:10:22.000Z,1007.042
2018-05-31T23:20:22.000Z,1007.176
2018-05-31T23:30:22.000Z,1007.276
2018-05-31T23:40:22.000Z,1007.121
